sensor_id;sensor_type;location;lat;lon;timestamp;P1;durP1;ratioP1;P2;durP2;ratioP2
3297;SDS011;1661;53.572;10.174;2023-09-08T00:00:41;12.10;;;7.97;;
3297;SDS011;1661;53.572;10.174;2023-09-08T00:03:08;9.50;;;7.43;;
3297;SDS011;1661;53.572;10.174;2023-09-08T00:05:34;8.93;;;7.30;;
3297;SDS011;1661;53.572;10.174;2023-09-08T00:08:01;9.30;;;8.30;;
3297;SDS011;1661;53.572;10.174;2023-09-08T00:10:28;13.57;;;8.07;;
3297;SDS011;1661;53.572;10.174;2023-09-08T00:12:56;8.20;;;7.57;;
3297;SDS011;1661;53.572;10.174;2023-09-08T00:15:23;9.10;;;7.80;;
3297;SDS011;1661;53.572;10.174;2023-09-08T00:17:50;7.40;;;6.80;;
3297;SDS011;1661;53.572;10.174;2023-09-08T00:20:17;9.87;;;8.20;;
3297;SDS011;1661;53.572;10.174;2023-09-08T00:22:44;9.07;;;8.20;;
3297;SDS011;1661;53.572;10.174;2023-09-08T00:25:10;13.37;;;9.87;;
3297;SDS011;1661;53.572;10.174;2023-09-08T00:27:37;10.80;;;9.17;;
3297;SDS011;1661;53.572;10.174;2023-09-08T00:30:06;9.73;;;8.73;;
3297;SDS011;1661;53.572;10.174;2023-09-08T00:32:33;10.80;;;8.30;;
3297;SDS011;1661;53.572;10.174;2023-09-08T00:35:01;14.93;;;8.17;;
3297;SDS011;1661;53.572;10.174;2023-09-08T00:37:28;9.27;;;8.33;;
3297;SDS011;1661;53.572;10.174;2023-09-08T00:39:55;8.83;;;8.00;;
3297;SDS011;1661;53.572;10.174;2023-09-08T00:42:21;10.53;;;9.20;;
3297;SDS011;1661;53.572;10.174;2023-09-08T00:44:48;8.67;;;7.87;;
3297;SDS011;1661;53.572;10.174;2023-09-08T00:47:17;16.43;;;9.17;;
3297;SDS011;1661;53.572;10.174;2023-09-08T00:49:44;9.10;;;8.40;;
3297;SDS011;1661;53.572;10.174;2023-09-08T00:52:11;10.33;;;9.33;;
3297;SDS011;1661;53.572;10.174;2023-09-08T00:54:38;8.40;;;7.80;;
3297;SDS011;1661;53.572;10.174;2023-09-08T00:57:05;11.10;;;10.00;;
3297;SDS011;1661;53.572;10.174;2023-09-08T01:02:01;11.90;;;8.70;;
3297;SDS011;1661;53.572;10.174;2023-09-08T01:04:29;11.77;;;9.40;;
3297;SDS011;1661;53.572;10.174;2023-09-08T01:06:58;12.53;;;9.00;;
3297;SDS011;1661;53.572;10.174;2023-09-08T01:09:25;12.27;;;8.40;;
3297;SDS011;1661;53.572;10.174;2023-09-08T01:11:53;8.90;;;8.20;;
3297;SDS011;1661;53.572;10.174;2023-09-08T01:14:20;9.90;;;8.90;;
3297;SDS011;1661;53.572;10.174;2023-09-08T01:16:47;10.00;;;8.90;;
3297;SDS011;1661;53.572;10.174;2023-09-08T01:19:14;9.27;;;8.27;;
3297;SDS011;1661;53.572;10.174;2023-09-08T01:21:56;10.10;;;8.30;;
3297;SDS011;1661;53.572;10.174;2023-09-08T01:24:58;9.33;;;8.30;;
3297;SDS011;1661;53.572;10.174;2023-09-08T01:27:35;8.97;;;8.17;;
3297;SDS011;1661;53.572;10.174;2023-09-08T01:30:04;7.97;;;7.23;;
3297;SDS011;1661;53.572;10.174;2023-09-08T01:32:32;9.97;;;9.07;;
3297;SDS011;1661;53.572;10.174;2023-09-08T01:35:00;11.77;;;8.90;;
3297;SDS011;1661;53.572;10.174;2023-09-08T01:37:27;12.07;;;9.47;;
3297;SDS011;1661;53.572;10.174;2023-09-08T01:39:54;9.70;;;8.80;;
3297;SDS011;1661;53.572;10.174;2023-09-08T01:42:22;25.97;;;9.53;;
3297;SDS011;1661;53.572;10.174;2023-09-08T01:44:49;10.77;;;9.87;;
3297;SDS011;1661;53.572;10.174;2023-09-08T01:47:15;9.90;;;8.07;;
3297;SDS011;1661;53.572;10.174;2023-09-08T01:49:42;12.80;;;9.87;;
3297;SDS011;1661;53.572;10.174;2023-09-08T01:52:09;11.97;;;9.60;;
3297;SDS011;1661;53.572;10.174;2023-09-08T01:54:36;10.03;;;8.67;;
3297;SDS011;1661;53.572;10.174;2023-09-08T01:57:02;10.67;;;9.70;;
3297;SDS011;1661;53.572;10.174;2023-09-08T01:59:31;8.57;;;7.87;;
3297;SDS011;1661;53.572;10.174;2023-09-08T02:01:58;9.90;;;8.07;;
3297;SDS011;1661;53.572;10.174;2023-09-08T02:04:24;8.00;;;7.30;;
3297;SDS011;1661;53.572;10.174;2023-09-08T02:06:51;9.73;;;8.83;;
3297;SDS011;1661;53.572;10.174;2023-09-08T02:09:18;8.93;;;8.13;;
3297;SDS011;1661;53.572;10.174;2023-09-08T02:11:45;9.10;;;7.50;;
3297;SDS011;1661;53.572;10.174;2023-09-08T02:14:11;13.43;;;8.53;;
3297;SDS011;1661;53.572;10.174;2023-09-08T02:16:39;8.70;;;7.93;;
3297;SDS011;1661;53.572;10.174;2023-09-08T02:19:06;9.77;;;8.77;;
3297;SDS011;1661;53.572;10.174;2023-09-08T02:21:33;9.87;;;9.03;;
3297;SDS011;1661;53.572;10.174;2023-09-08T02:24:00;11.00;;;8.33;;
3297;SDS011;1661;53.572;10.174;2023-09-08T02:26:26;10.60;;;9.23;;
3297;SDS011;1661;53.572;10.174;2023-09-08T02:28:54;9.57;;;8.47;;
3297;SDS011;1661;53.572;10.174;2023-09-08T02:31:21;12.13;;;11.07;;
3297;SDS011;1661;53.572;10.174;2023-09-08T02:33:49;12.17;;;10.97;;
3297;SDS011;1661;53.572;10.174;2023-09-08T02:36:16;9.83;;;8.90;;
3297;SDS011;1661;53.572;10.174;2023-09-08T02:38:42;10.20;;;8.40;;
3297;SDS011;1661;53.572;10.174;2023-09-08T02:41:09;9.10;;;8.20;;
3297;SDS011;1661;53.572;10.174;2023-09-08T02:43:36;8.90;;;8.00;;
3297;SDS011;1661;53.572;10.174;2023-09-08T02:46:03;8.50;;;7.70;;
3297;SDS011;1661;53.572;10.174;2023-09-08T02:48:29;9.60;;;8.30;;
3297;SDS011;1661;53.572;10.174;2023-09-08T02:50:58;9.10;;;8.20;;
3297;SDS011;1661;53.572;10.174;2023-09-08T02:53:25;10.13;;;9.23;;
3297;SDS011;1661;53.572;10.174;2023-09-08T02:55:53;10.80;;;9.80;;
3297;SDS011;1661;53.572;10.174;2023-09-08T02:58:20;9.40;;;8.10;;
3297;SDS011;1661;53.572;10.174;2023-09-08T03:00:47;13.23;;;9.60;;
3297;SDS011;1661;53.572;10.174;2023-09-08T03:03:14;10.03;;;9.00;;
3297;SDS011;1661;53.572;10.174;2023-09-08T03:05:40;10.77;;;9.60;;
3297;SDS011;1661;53.572;10.174;2023-09-08T03:08:09;9.73;;;8.83;;
3297;SDS011;1661;53.572;10.174;2023-09-08T03:10:35;11.60;;;10.40;;
3297;SDS011;1661;53.572;10.174;2023-09-08T03:13:02;13.80;;;11.60;;
3297;SDS011;1661;53.572;10.174;2023-09-08T03:15:29;11.30;;;9.80;;
3297;SDS011;1661;53.572;10.174;2023-09-08T03:17:56;11.57;;;10.53;;
3297;SDS011;1661;53.572;10.174;2023-09-08T03:20:24;10.60;;;9.40;;
3297;SDS011;1661;53.572;10.174;2023-09-08T03:22:52;11.43;;;10.17;;
3297;SDS011;1661;53.572;10.174;2023-09-08T03:25:20;11.30;;;10.20;;
3297;SDS011;1661;53.572;10.174;2023-09-08T03:27:47;10.77;;;9.60;;
3297;SDS011;1661;53.572;10.174;2023-09-08T03:30:14;16.80;;;10.63;;
3297;SDS011;1661;53.572;10.174;2023-09-08T03:32:41;15.00;;;11.13;;
3297;SDS011;1661;53.572;10.174;2023-09-08T03:35:08;10.57;;;9.57;;
3297;SDS011;1661;53.572;10.174;2023-09-08T03:37:35;16.77;;;11.00;;
3297;SDS011;1661;53.572;10.174;2023-09-08T03:40:02;14.80;;;11.30;;
3297;SDS011;1661;53.572;10.174;2023-09-08T03:42:32;12.40;;;11.30;;
3297;SDS011;1661;53.572;10.174;2023-09-08T03:44:59;13.90;;;12.10;;
3297;SDS011;1661;53.572;10.174;2023-09-08T03:47:26;12.60;;;11.40;;
3297;SDS011;1661;53.572;10.174;2023-09-08T03:49:53;13.50;;;10.97;;
3297;SDS011;1661;53.572;10.174;2023-09-08T03:52:20;14.03;;;12.73;;
3297;SDS011;1661;53.572;10.174;2023-09-08T03:54:46;19.57;;;11.63;;
3297;SDS011;1661;53.572;10.174;2023-09-08T03:57:13;13.73;;;12.37;;
3297;SDS011;1661;53.572;10.174;2023-09-08T03:59:41;12.03;;;11.00;;
3297;SDS011;1661;53.572;10.174;2023-09-08T04:02:08;13.20;;;11.60;;
3297;SDS011;1661;53.572;10.174;2023-09-08T04:04:35;12.23;;;11.00;;
3297;SDS011;1661;53.572;10.174;2023-09-08T04:07:02;13.00;;;11.80;;
3297;SDS011;1661;53.572;10.174;2023-09-08T04:09:29;15.20;;;11.43;;
3297;SDS011;1661;53.572;10.174;2023-09-08T04:11:56;13.73;;;12.33;;
3297;SDS011;1661;53.572;10.174;2023-09-08T04:14:23;13.80;;;12.30;;
3297;SDS011;1661;53.572;10.174;2023-09-08T04:16:53;15.37;;;12.30;;
3297;SDS011;1661;53.572;10.174;2023-09-08T04:19:20;15.00;;;12.73;;
3297;SDS011;1661;53.572;10.174;2023-09-08T04:21:47;14.20;;;12.53;;
3297;SDS011;1661;53.572;10.174;2023-09-08T04:24:13;14.70;;;13.10;;
3297;SDS011;1661;53.572;10.174;2023-09-08T04:26:40;12.90;;;11.60;;
3297;SDS011;1661;53.572;10.174;2023-09-08T04:29:07;13.57;;;12.23;;
3297;SDS011;1661;53.572;10.174;2023-09-08T04:31:34;14.20;;;11.93;;
3297;SDS011;1661;53.572;10.174;2023-09-08T04:34:02;17.70;;;12.23;;
3297;SDS011;1661;53.572;10.174;2023-09-08T04:36:29;13.13;;;11.73;;
3297;SDS011;1661;53.572;10.174;2023-09-08T04:38:55;15.83;;;11.37;;
3297;SDS011;1661;53.572;10.174;2023-09-08T04:41:22;14.43;;;11.67;;
3297;SDS011;1661;53.572;10.174;2023-09-08T04:43:49;17.10;;;12.03;;
3297;SDS011;1661;53.572;10.174;2023-09-08T04:46:16;18.00;;;12.90;;
3297;SDS011;1661;53.572;10.174;2023-09-08T04:48:43;14.13;;;12.77;;
3297;SDS011;1661;53.572;10.174;2023-09-08T04:51:11;16.97;;;12.10;;
3297;SDS011;1661;53.572;10.174;2023-09-08T04:53:37;17.43;;;11.37;;
3297;SDS011;1661;53.572;10.174;2023-09-08T04:56:04;14.70;;;13.30;;
3297;SDS011;1661;53.572;10.174;2023-09-08T04:58:31;10.47;;;9.50;;
3297;SDS011;1661;53.572;10.174;2023-09-08T05:00:58;15.80;;;12.70;;
3297;SDS011;1661;53.572;10.174;2023-09-08T05:03:23;12.67;;;11.40;;
3297;SDS011;1661;53.572;10.174;2023-09-08T05:05:51;13.63;;;12.00;;
3297;SDS011;1661;53.572;10.174;2023-09-08T05:08:19;15.30;;;13.70;;
3297;SDS011;1661;53.572;10.174;2023-09-08T05:10:46;18.40;;;14.03;;
3297;SDS011;1661;53.572;10.174;2023-09-08T05:13:12;15.23;;;13.73;;
3297;SDS011;1661;53.572;10.174;2023-09-08T05:15:39;14.90;;;13.40;;
3297;SDS011;1661;53.572;10.174;2023-09-08T05:18:08;13.83;;;12.53;;
3297;SDS011;1661;53.572;10.174;2023-09-08T05:20:34;14.73;;;13.30;;
3297;SDS011;1661;53.572;10.174;2023-09-08T05:23:01;17.83;;;14.57;;
3297;SDS011;1661;53.572;10.174;2023-09-08T05:25:29;15.70;;;13.67;;
3297;SDS011;1661;53.572;10.174;2023-09-08T05:27:56;16.77;;;14.83;;
3297;SDS011;1661;53.572;10.174;2023-09-08T05:30:23;20.67;;;14.73;;
3297;SDS011;1661;53.572;10.174;2023-09-08T05:32:50;19.10;;;14.47;;
3297;SDS011;1661;53.572;10.174;2023-09-08T05:35:16;16.60;;;14.80;;
3297;SDS011;1661;53.572;10.174;2023-09-08T05:37:43;16.27;;;14.57;;
3297;SDS011;1661;53.572;10.174;2023-09-08T05:40:10;15.27;;;13.73;;
3297;SDS011;1661;53.572;10.174;2023-09-08T05:42:38;20.23;;;14.50;;
3297;SDS011;1661;53.572;10.174;2023-09-08T05:45:05;15.83;;;14.23;;
3297;SDS011;1661;53.572;10.174;2023-09-08T05:47:32;17.53;;;12.90;;
3297;SDS011;1661;53.572;10.174;2023-09-08T05:50:01;13.40;;;12.10;;
3297;SDS011;1661;53.572;10.174;2023-09-08T05:52:27;16.90;;;15.20;;
3297;SDS011;1661;53.572;10.174;2023-09-08T05:54:54;15.80;;;14.20;;
3297;SDS011;1661;53.572;10.174;2023-09-08T05:57:21;14.40;;;13.00;;
3297;SDS011;1661;53.572;10.174;2023-09-08T05:59:49;18.13;;;14.83;;
3297;SDS011;1661;53.572;10.174;2023-09-08T06:02:16;14.20;;;12.90;;
3297;SDS011;1661;53.572;10.174;2023-09-08T06:04:42;15.50;;;13.57;;
3297;SDS011;1661;53.572;10.174;2023-09-08T06:07:09;16.00;;;14.30;;
3297;SDS011;1661;53.572;10.174;2023-09-08T06:09:36;16.73;;;13.40;;
3297;SDS011;1661;53.572;10.174;2023-09-08T06:12:03;13.27;;;11.97;;
3297;SDS011;1661;53.572;10.174;2023-09-08T06:14:30;13.27;;;11.97;;
3297;SDS011;1661;53.572;10.174;2023-09-08T06:16:58;11.57;;;10.53;;
3297;SDS011;1661;53.572;10.174;2023-09-08T06:19:25;12.47;;;11.20;;
3297;SDS011;1661;53.572;10.174;2023-09-08T06:21:52;13.77;;;11.50;;
3297;SDS011;1661;53.572;10.174;2023-09-08T06:24:19;13.83;;;12.43;;
3297;SDS011;1661;53.572;10.174;2023-09-08T06:26:46;13.67;;;11.87;;
3297;SDS011;1661;53.572;10.174;2023-09-08T06:29:14;15.47;;;12.70;;
3297;SDS011;1661;53.572;10.174;2023-09-08T06:31:41;14.17;;;12.10;;
3297;SDS011;1661;53.572;10.174;2023-09-08T06:34:09;13.80;;;12.53;;
3297;SDS011;1661;53.572;10.174;2023-09-08T06:36:36;15.13;;;12.67;;
3297;SDS011;1661;53.572;10.174;2023-09-08T06:39:03;16.17;;;14.10;;
3297;SDS011;1661;53.572;10.174;2023-09-08T06:41:29;13.27;;;11.87;;
3297;SDS011;1661;53.572;10.174;2023-09-08T06:43:56;16.67;;;13.60;;
3297;SDS011;1661;53.572;10.174;2023-09-08T06:46:23;14.07;;;12.60;;
3297;SDS011;1661;53.572;10.174;2023-09-08T06:48:50;13.97;;;12.10;;
3297;SDS011;1661;53.572;10.174;2023-09-08T06:51:18;13.83;;;12.53;;
3297;SDS011;1661;53.572;10.174;2023-09-08T06:53:46;14.87;;;12.27;;
3297;SDS011;1661;53.572;10.174;2023-09-08T06:56:21;12.50;;;11.20;;
3297;SDS011;1661;53.572;10.174;2023-09-08T06:58:48;12.27;;;11.10;;
3297;SDS011;1661;53.572;10.174;2023-09-08T07:01:15;13.30;;;12.03;;
3297;SDS011;1661;53.572;10.174;2023-09-08T07:03:41;17.93;;;12.13;;
3297;SDS011;1661;53.572;10.174;2023-09-08T07:06:08;13.23;;;11.83;;
3297;SDS011;1661;53.572;10.174;2023-09-08T07:08:36;10.83;;;9.83;;
3297;SDS011;1661;53.572;10.174;2023-09-08T07:11:03;14.20;;;10.90;;
3297;SDS011;1661;53.572;10.174;2023-09-08T07:13:30;12.23;;;11.07;;
3297;SDS011;1661;53.572;10.174;2023-09-08T07:15:56;13.37;;;11.20;;
3297;SDS011;1661;53.572;10.174;2023-09-08T07:18:23;20.53;;;12.13;;
3297;SDS011;1661;53.572;10.174;2023-09-08T07:20:50;11.50;;;10.40;;
3297;SDS011;1661;53.572;10.174;2023-09-08T07:23:17;15.80;;;11.33;;
3297;SDS011;1661;53.572;10.174;2023-09-08T07:25:48;13.70;;;11.70;;
3297;SDS011;1661;53.572;10.174;2023-09-08T07:28:16;18.90;;;11.73;;
3297;SDS011;1661;53.572;10.174;2023-09-08T07:30:43;11.90;;;10.70;;
3297;SDS011;1661;53.572;10.174;2023-09-08T07:33:10;14.87;;;11.20;;
3297;SDS011;1661;53.572;10.174;2023-09-08T07:35:37;13.27;;;11.63;;
3297;SDS011;1661;53.572;10.174;2023-09-08T07:38:04;11.87;;;10.63;;
3297;SDS011;1661;53.572;10.174;2023-09-08T07:40:31;12.67;;;10.63;;
3297;SDS011;1661;53.572;10.174;2023-09-08T07:43:00;11.33;;;10.20;;
3297;SDS011;1661;53.572;10.174;2023-09-08T07:45:27;12.30;;;11.10;;
3297;SDS011;1661;53.572;10.174;2023-09-08T07:47:54;11.70;;;10.50;;
3297;SDS011;1661;53.572;10.174;2023-09-08T07:50:22;12.60;;;10.77;;
3297;SDS011;1661;53.572;10.174;2023-09-08T07:52:50;15.73;;;10.37;;
3297;SDS011;1661;53.572;10.174;2023-09-08T07:55:18;11.43;;;10.37;;
3297;SDS011;1661;53.572;10.174;2023-09-08T07:57:47;10.30;;;9.27;;
3297;SDS011;1661;53.572;10.174;2023-09-08T08:00:16;13.70;;;10.37;;
3297;SDS011;1661;53.572;10.174;2023-09-08T08:02:45;12.67;;;11.40;;
3297;SDS011;1661;53.572;10.174;2023-09-08T08:05:13;9.73;;;8.77;;
3297;SDS011;1661;53.572;10.174;2023-09-08T08:07:41;12.40;;;10.50;;
3297;SDS011;1661;53.572;10.174;2023-09-08T08:10:08;13.53;;;10.80;;
3297;SDS011;1661;53.572;10.174;2023-09-08T08:12:36;13.50;;;10.90;;
3297;SDS011;1661;53.572;10.174;2023-09-08T08:15:03;11.40;;;10.27;;
3297;SDS011;1661;53.572;10.174;2023-09-08T08:17:32;14.73;;;10.33;;
3297;SDS011;1661;53.572;10.174;2023-09-08T08:19:59;13.20;;;10.40;;
3297;SDS011;1661;53.572;10.174;2023-09-08T08:22:31;10.50;;;9.60;;
3297;SDS011;1661;53.572;10.174;2023-09-08T08:24:58;13.50;;;9.57;;
3297;SDS011;1661;53.572;10.174;2023-09-08T08:27:25;14.00;;;10.60;;
3297;SDS011;1661;53.572;10.174;2023-09-08T08:29:52;12.40;;;10.53;;
3297;SDS011;1661;53.572;10.174;2023-09-08T08:32:19;9.77;;;8.87;;
3297;SDS011;1661;53.572;10.174;2023-09-08T08:34:47;10.10;;;9.30;;
3297;SDS011;1661;53.572;10.174;2023-09-08T08:37:14;12.53;;;8.57;;
3297;SDS011;1661;53.572;10.174;2023-09-08T08:39:41;11.37;;;10.27;;
3297;SDS011;1661;53.572;10.174;2023-09-08T08:42:08;15.00;;;10.17;;
3297;SDS011;1661;53.572;10.174;2023-09-08T08:44:35;10.93;;;9.20;;
3297;SDS011;1661;53.572;10.174;2023-09-08T08:47:03;13.60;;;9.23;;
3297;SDS011;1661;53.572;10.174;2023-09-08T08:49:33;13.67;;;9.20;;
3297;SDS011;1661;53.572;10.174;2023-09-08T08:52:01;10.07;;;9.07;;
3297;SDS011;1661;53.572;10.174;2023-09-08T08:54:32;9.80;;;8.90;;
3297;SDS011;1661;53.572;10.174;2023-09-08T08:57:01;11.07;;;8.37;;
3297;SDS011;1661;53.572;10.174;2023-09-08T08:59:28;8.90;;;8.10;;
3297;SDS011;1661;53.572;10.174;2023-09-08T09:01:56;11.27;;;9.60;;
3297;SDS011;1661;53.572;10.174;2023-09-08T09:04:23;15.20;;;9.43;;
3297;SDS011;1661;53.572;10.174;2023-09-08T09:06:51;10.67;;;9.70;;
3297;SDS011;1661;53.572;10.174;2023-09-08T09:09:20;9.10;;;8.20;;
3297;SDS011;1661;53.572;10.174;2023-09-08T09:11:47;11.73;;;8.27;;
3297;SDS011;1661;53.572;10.174;2023-09-08T09:14:15;11.27;;;9.37;;
3297;SDS011;1661;53.572;10.174;2023-09-08T09:16:42;10.37;;;9.20;;
3297;SDS011;1661;53.572;10.174;2023-09-08T09:19:10;9.93;;;8.90;;
3297;SDS011;1661;53.572;10.174;2023-09-08T09:21:46;16.07;;;8.90;;
3297;SDS011;1661;53.572;10.174;2023-09-08T09:24:15;8.60;;;7.43;;
3297;SDS011;1661;53.572;10.174;2023-09-08T09:26:44;9.83;;;8.70;;
3297;SDS011;1661;53.572;10.174;2023-09-08T09:29:11;12.40;;;8.83;;
3297;SDS011;1661;53.572;10.174;2023-09-08T09:31:46;10.40;;;9.40;;
3297;SDS011;1661;53.572;10.174;2023-09-08T09:34:17;10.60;;;8.00;;
3297;SDS011;1661;53.572;10.174;2023-09-08T09:36:45;9.67;;;8.80;;
3297;SDS011;1661;53.572;10.174;2023-09-08T09:39:16;10.67;;;9.60;;
3297;SDS011;1661;53.572;10.174;2023-09-08T09:41:45;9.57;;;8.60;;
3297;SDS011;1661;53.572;10.174;2023-09-08T09:44:12;9.13;;;8.23;;
3297;SDS011;1661;53.572;10.174;2023-09-08T09:46:42;11.70;;;8.53;;
3297;SDS011;1661;53.572;10.174;2023-09-08T09:49:10;8.77;;;7.50;;
3297;SDS011;1661;53.572;10.174;2023-09-08T09:51:39;9.53;;;8.70;;
3297;SDS011;1661;53.572;10.174;2023-09-08T09:54:07;11.10;;;8.23;;
3297;SDS011;1661;53.572;10.174;2023-09-08T09:56:35;9.43;;;8.50;;
3297;SDS011;1661;53.572;10.174;2023-09-08T09:59:05;8.23;;;7.47;;
3297;SDS011;1661;53.572;10.174;2023-09-08T10:01:34;11.33;;;7.60;;
3297;SDS011;1661;53.572;10.174;2023-09-08T10:04:01;10.20;;;8.60;;
3297;SDS011;1661;53.572;10.174;2023-09-08T10:06:30;10.67;;;8.47;;
3297;SDS011;1661;53.572;10.174;2023-09-08T10:08:58;8.70;;;7.90;;
3297;SDS011;1661;53.572;10.174;2023-09-08T10:11:27;14.63;;;7.90;;
3297;SDS011;1661;53.572;10.174;2023-09-08T10:13:57;9.40;;;7.77;;
3297;SDS011;1661;53.572;10.174;2023-09-08T10:16:27;12.10;;;8.67;;
3297;SDS011;1661;53.572;10.174;2023-09-08T10:18:58;8.67;;;7.10;;
3297;SDS011;1661;53.572;10.174;2023-09-08T10:21:26;9.83;;;8.17;;
3297;SDS011;1661;53.572;10.174;2023-09-08T10:23:57;12.40;;;7.67;;
3297;SDS011;1661;53.572;10.174;2023-09-08T10:26:28;19.20;;;8.10;;
3297;SDS011;1661;53.572;10.174;2023-09-08T10:28:58;10.53;;;8.30;;
3297;SDS011;1661;53.572;10.174;2023-09-08T10:31:26;9.23;;;8.27;;
3297;SDS011;1661;53.572;10.174;2023-09-08T10:33:54;8.00;;;7.20;;
3297;SDS011;1661;53.572;10.174;2023-09-08T10:36:22;9.20;;;8.27;;
3297;SDS011;1661;53.572;10.174;2023-09-08T10:38:49;10.13;;;8.90;;
3297;SDS011;1661;53.572;10.174;2023-09-08T10:41:25;9.10;;;8.10;;
3297;SDS011;1661;53.572;10.174;2023-09-08T10:43:54;8.33;;;7.53;;
3297;SDS011;1661;53.572;10.174;2023-09-08T10:46:22;8.93;;;7.87;;
3297;SDS011;1661;53.572;10.174;2023-09-08T10:48:51;8.67;;;7.80;;
3297;SDS011;1661;53.572;10.174;2023-09-08T10:51:19;8.33;;;7.37;;
3297;SDS011;1661;53.572;10.174;2023-09-08T10:53:48;9.90;;;8.47;;
3297;SDS011;1661;53.572;10.174;2023-09-08T10:56:16;8.53;;;7.60;;
3297;SDS011;1661;53.572;10.174;2023-09-08T10:58:43;8.97;;;8.17;;
3297;SDS011;1661;53.572;10.174;2023-09-08T11:01:15;8.63;;;7.73;;
3297;SDS011;1661;53.572;10.174;2023-09-08T11:03:44;7.70;;;6.80;;
3297;SDS011;1661;53.572;10.174;2023-09-08T11:06:14;13.30;;;7.20;;
3297;SDS011;1661;53.572;10.174;2023-09-08T11:08:43;7.30;;;6.57;;
3297;SDS011;1661;53.572;10.174;2023-09-08T11:11:10;9.90;;;6.50;;
3297;SDS011;1661;53.572;10.174;2023-09-08T11:13:38;9.73;;;7.00;;
3297;SDS011;1661;53.572;10.174;2023-09-08T11:16:07;7.53;;;6.83;;
3297;SDS011;1661;53.572;10.174;2023-09-08T11:18:34;7.47;;;6.43;;
3297;SDS011;1661;53.572;10.174;2023-09-08T11:21:01;7.67;;;6.37;;
3297;SDS011;1661;53.572;10.174;2023-09-08T11:23:30;7.83;;;7.10;;
3297;SDS011;1661;53.572;10.174;2023-09-08T11:25:57;9.17;;;6.37;;
3297;SDS011;1661;53.572;10.174;2023-09-08T11:28:26;6.90;;;6.30;;
3297;SDS011;1661;53.572;10.174;2023-09-08T11:30:53;6.90;;;6.30;;
3297;SDS011;1661;53.572;10.174;2023-09-08T11:33:21;11.30;;;7.13;;
3297;SDS011;1661;53.572;10.174;2023-09-08T11:35:50;7.47;;;6.53;;
3297;SDS011;1661;53.572;10.174;2023-09-08T11:38:17;7.70;;;6.77;;
3297;SDS011;1661;53.572;10.174;2023-09-08T11:40:46;7.90;;;7.03;;
3297;SDS011;1661;53.572;10.174;2023-09-08T11:43:13;7.63;;;7.03;;
3297;SDS011;1661;53.572;10.174;2023-09-08T11:45:40;8.40;;;7.60;;
3297;SDS011;1661;53.572;10.174;2023-09-08T11:48:09;7.73;;;6.93;;
3297;SDS011;1661;53.572;10.174;2023-09-08T11:50:36;10.40;;;7.27;;
3297;SDS011;1661;53.572;10.174;2023-09-08T11:53:03;7.57;;;6.97;;
3297;SDS011;1661;53.572;10.174;2023-09-08T11:55:31;9.20;;;7.80;;
3297;SDS011;1661;53.572;10.174;2023-09-08T11:57:59;10.47;;;7.57;;
3297;SDS011;1661;53.572;10.174;2023-09-08T12:00:26;7.70;;;6.90;;
3297;SDS011;1661;53.572;10.174;2023-09-08T12:02:54;8.00;;;7.07;;
3297;SDS011;1661;53.572;10.174;2023-09-08T12:05:22;8.07;;;7.37;;
3297;SDS011;1661;53.572;10.174;2023-09-08T12:07:49;7.27;;;6.33;;
3297;SDS011;1661;53.572;10.174;2023-09-08T12:10:17;8.77;;;7.80;;
3297;SDS011;1661;53.572;10.174;2023-09-08T12:12:45;7.50;;;6.80;;
3297;SDS011;1661;53.572;10.174;2023-09-08T12:15:13;7.83;;;7.10;;
3297;SDS011;1661;53.572;10.174;2023-09-08T12:17:56;8.63;;;7.00;;
3297;SDS011;1661;53.572;10.174;2023-09-08T12:20:24;7.60;;;6.60;;
3297;SDS011;1661;53.572;10.174;2023-09-08T12:22:51;6.97;;;6.30;;
3297;SDS011;1661;53.572;10.174;2023-09-08T12:25:18;11.20;;;7.23;;
3297;SDS011;1661;53.572;10.174;2023-09-08T12:27:45;9.20;;;7.50;;
3297;SDS011;1661;53.572;10.174;2023-09-08T12:30:20;7.10;;;6.47;;
3297;SDS011;1661;53.572;10.174;2023-09-08T12:32:55;7.77;;;6.93;;
3297;SDS011;1661;53.572;10.174;2023-09-08T12:35:23;7.10;;;6.50;;
3297;SDS011;1661;53.572;10.174;2023-09-08T12:37:53;12.00;;;6.97;;
3297;SDS011;1661;53.572;10.174;2023-09-08T12:40:23;9.50;;;7.37;;
3297;SDS011;1661;53.572;10.174;2023-09-08T12:42:50;7.47;;;6.60;;
3297;SDS011;1661;53.572;10.174;2023-09-08T12:45:17;8.23;;;7.43;;
3297;SDS011;1661;53.572;10.174;2023-09-08T12:47:46;7.67;;;7.07;;
3297;SDS011;1661;53.572;10.174;2023-09-08T12:50:13;7.00;;;6.50;;
3297;SDS011;1661;53.572;10.174;2023-09-08T12:52:39;8.40;;;6.50;;
3297;SDS011;1661;53.572;10.174;2023-09-08T12:55:06;7.50;;;6.90;;
3297;SDS011;1661;53.572;10.174;2023-09-08T12:57:34;8.70;;;7.90;;
3297;SDS011;1661;53.572;10.174;2023-09-08T13:00:01;6.93;;;6.33;;
3297;SDS011;1661;53.572;10.174;2023-09-08T13:02:30;6.40;;;5.90;;
3297;SDS011;1661;53.572;10.174;2023-09-08T13:04:56;6.47;;;6.00;;
3297;SDS011;1661;53.572;10.174;2023-09-08T13:07:23;6.37;;;5.63;;
3297;SDS011;1661;53.572;10.174;2023-09-08T13:09:51;6.03;;;5.53;;
3297;SDS011;1661;53.572;10.174;2023-09-08T13:12:17;7.70;;;5.60;;
3297;SDS011;1661;53.572;10.174;2023-09-08T13:14:44;5.83;;;5.00;;
3297;SDS011;1661;53.572;10.174;2023-09-08T13:17:11;8.43;;;6.00;;
3297;SDS011;1661;53.572;10.174;2023-09-08T13:19:41;16.20;;;6.90;;
3297;SDS011;1661;53.572;10.174;2023-09-08T13:22:08;5.40;;;4.93;;
3297;SDS011;1661;53.572;10.174;2023-09-08T13:24:35;6.27;;;5.77;;
3297;SDS011;1661;53.572;10.174;2023-09-08T13:27:02;6.97;;;5.70;;
3297;SDS011;1661;53.572;10.174;2023-09-08T13:29:29;5.60;;;5.10;;
3297;SDS011;1661;53.572;10.174;2023-09-08T13:31:56;6.50;;;5.57;;
3297;SDS011;1661;53.572;10.174;2023-09-08T13:34:23;10.57;;;5.40;;
3297;SDS011;1661;53.572;10.174;2023-09-08T13:36:51;5.10;;;4.80;;
3297;SDS011;1661;53.572;10.174;2023-09-08T13:39:18;6.50;;;5.90;;
3297;SDS011;1661;53.572;10.174;2023-09-08T13:41:46;4.90;;;4.60;;
3297;SDS011;1661;53.572;10.174;2023-09-08T13:44:15;5.97;;;5.43;;
3297;SDS011;1661;53.572;10.174;2023-09-08T13:46:42;6.27;;;5.77;;
3297;SDS011;1661;53.572;10.174;2023-09-08T13:49:09;7.53;;;6.70;;
3297;SDS011;1661;53.572;10.174;2023-09-08T13:51:36;9.03;;;8.27;;
3297;SDS011;1661;53.572;10.174;2023-09-08T13:54:04;7.87;;;6.17;;
3297;SDS011;1661;53.572;10.174;2023-09-08T13:56:31;7.77;;;5.63;;
3297;SDS011;1661;53.572;10.174;2023-09-08T13:58:58;6.27;;;5.77;;
3297;SDS011;1661;53.572;10.174;2023-09-08T14:01:25;6.37;;;5.87;;
3297;SDS011;1661;53.572;10.174;2023-09-08T14:03:54;5.40;;;5.00;;
3297;SDS011;1661;53.572;10.174;2023-09-08T14:06:25;6.30;;;5.80;;
3297;SDS011;1661;53.572;10.174;2023-09-08T14:08:52;10.77;;;6.73;;
3297;SDS011;1661;53.572;10.174;2023-09-08T14:11:21;9.50;;;5.43;;
3297;SDS011;1661;53.572;10.174;2023-09-08T14:13:48;8.47;;;7.13;;
3297;SDS011;1661;53.572;10.174;2023-09-08T14:16:16;5.90;;;5.30;;
3297;SDS011;1661;53.572;10.174;2023-09-08T14:18:44;8.10;;;7.30;;
3297;SDS011;1661;53.572;10.174;2023-09-08T14:21:10;8.83;;;8.10;;
3297;SDS011;1661;53.572;10.174;2023-09-08T14:23:37;6.00;;;5.50;;
3297;SDS011;1661;53.572;10.174;2023-09-08T14:26:05;7.47;;;6.97;;
3297;SDS011;1661;53.572;10.174;2023-09-08T14:28:33;6.23;;;5.40;;
3297;SDS011;1661;53.572;10.174;2023-09-08T14:31:01;6.63;;;6.17;;
3297;SDS011;1661;53.572;10.174;2023-09-08T14:33:28;7.37;;;6.27;;
3297;SDS011;1661;53.572;10.174;2023-09-08T14:35:55;8.07;;;7.27;;
3297;SDS011;1661;53.572;10.174;2023-09-08T14:38:22;7.93;;;7.13;;
3297;SDS011;1661;53.572;10.174;2023-09-08T14:40:56;14.57;;;8.57;;
3297;SDS011;1661;53.572;10.174;2023-09-08T14:43:23;8.47;;;7.57;;
3297;SDS011;1661;53.572;10.174;2023-09-08T14:45:52;7.37;;;6.60;;
3297;SDS011;1661;53.572;10.174;2023-09-08T14:48:19;10.33;;;6.47;;
3297;SDS011;1661;53.572;10.174;2023-09-08T14:50:46;12.83;;;5.83;;
3297;SDS011;1661;53.572;10.174;2023-09-08T14:53:13;9.00;;;5.33;;